Flight Track Log - Related Links

Times and Time Zones

All times are in EDT time to prevent confusion due to time zone crossing. See the DAL1125 flight status page for this flight to view local times or setup timezone preferences in your user account.

Time Position Orientation Groundspeed Altitude Reporting Facility
EDT Latitude Longitude Course Direction KTS MPH feet Rate Location/Type
Thu 12:28:26 PM 33.6333 -84.3833 53° Northeast 157 181 2,700  Level Atlanta TRACON
Thu 12:29:20 PM 33.6333 -84.3167 90° East 231 266 4,100 2,550 Climbing Atlanta TRACON
Thu 12:30:00 PM 33.7492 -83.9793 54° Northeast  Level FlightAware Approximate
Thu 12:30:26 PM 33.6500 -84.2333 76° East 284 327 7,800  Level Atlanta TRACON
Thu 12:31:00 PM 33.8244 -83.8540 54° Northeast  Level FlightAware Approximate
Thu 12:31:26 PM 33.7000 -84.1500 54° Northeast 306 352 10,900  Level Atlanta TRACON
Thu 12:32:00 PM 33.9043 -83.7332 48° Northeast  Level FlightAware Approximate
Thu 12:32:26 PM 33.7333 -84.0667 64° Northeast 313 360 13,800  Level Atlanta TRACON
Thu 12:33:00 PM 33.9828 -83.6107 53° Northeast  Level FlightAware Approximate
Thu 12:33:42 PM 33.8047 -83.9489 54° Northeast 348 400 14,000  Level Atlanta Center
Thu 12:34:42 PM 33.8631 -83.8386 57° Northeast 376 433 15,600 1,900 Climbing Atlanta Center
Thu 12:35:42 PM 33.9275 -83.7233 56° Northeast 402 463 17,800 2,100 Climbing Atlanta Center
Thu 12:36:42 PM 33.9958 -83.6103 54° Northeast 414 476 19,800 1,950 Climbing Atlanta Center
Thu 12:37:42 PM 34.0686 -83.4872 54° Northeast 437 503 21,700 1,850 Climbing Atlanta Center
Thu 12:38:42 PM 34.1389 -83.3686 54° Northeast 437 503 23,500 1,600 Climbing Atlanta Center
Thu 12:39:42 PM 34.2172 -83.2275 56° Northeast 448 516 24,900 1,100 Climbing Atlanta Center
Thu 12:40:42 PM 34.2558 -83.0761 73° East 453 521 25,700 800 Climbing Atlanta Center
Thu 12:41:42 PM 34.2942 -82.9250 73° East 467 537 26,500 900 Climbing Atlanta Center
Thu 12:42:42 PM 34.3492 -82.7733 66° East 477 549 27,500 1,150 Climbing Atlanta Center
Thu 12:43:42 PM 34.4353 -82.6436 51° Northeast 483 556 28,800 1,250 Climbing Atlanta Center
Thu 12:44:42 PM 34.5092 -82.5264 53° Northeast 483 556 30,000 1,100 Climbing Atlanta Center
Thu 12:45:42 PM 34.5889 -82.3986 53° Northeast 483 556 31,000 500 Climbing Atlanta Center
Thu 12:46:42 PM 34.6686 -82.2683 53° Northeast 477 549 31,000  Level Atlanta Center
Thu 12:47:42 PM 34.7481 -82.1428 52° Northeast 477 549 31,000 50 Level Atlanta Center
Thu 12:48:42 PM 34.8272 -82.0119 54° Northeast 477 549 31,100  Climbing Atlanta Center
Thu 12:49:42 PM 34.9125 -81.8706 54° Northeast 472 543 31,000 -50 Descending Atlanta Center
Thu 12:50:42 PM 34.9936 -81.7417 52° Northeast 472 543 31,000  Level Atlanta Center
Thu 12:51:42 PM 35.0664 -81.6231 53° Northeast 478 550 31,000  Level Atlanta Center
Thu 12:52:42 PM 35.1472 -81.4886 54° Northeast 483 556 31,000  Level Atlanta Center
Thu 12:53:42 PM 35.2278 -81.3564 53° Northeast 483 556 31,000  Level Atlanta Center
Thu 12:54:42 PM 35.3061 -81.2214 55° Northeast 478 550 31,000  Level Atlanta Center
Thu 12:55:42 PM 35.3864 -81.0864 54° Northeast 488 562 31,000  Level Atlanta Center
Thu 12:56:42 PM 35.4686 -80.9506 53° Northeast 493 567 31,000  Level Atlanta Center
Thu 12:57:42 PM 35.5486 -80.8175 54° Northeast 488 562 31,000  Level Atlanta Center
Thu 12:58:42 PM 35.6264 -80.6842 54° Northeast 483 556 31,000  Level Atlanta Center
Thu 12:59:42 PM 35.7083 -80.5503 53° Northeast 483 556 31,000  Level Atlanta Center
Thu 01:01:20 PM 35.8458 -80.3147 54° Northeast 494 568 31,000  Level Washington Center
Thu 01:02:19 PM 35.9261 -80.1808 53° Northeast 499 574 31,000  Level Washington Center
Thu 01:03:19 PM 35.9953 -80.0642 54° Northeast 494 568 31,000  Level Washington Center
Thu 01:04:20 PM 36.0756 -79.9275 54° Northeast 482 555 31,000  Level Washington Center
Thu 01:05:20 PM 36.1622 -79.7728 55° Northeast 488 562 31,000  Level Washington Center
Thu 01:06:21 PM 36.2358 -79.6375 56° Northeast 482 555 31,000  Level Washington Center
Thu 01:07:21 PM 36.3156 -79.5000 54° Northeast 482 555 31,000 -153 Level Washington Center
Thu 01:08:19 PM 36.3953 -79.3594 55° Northeast 482 555 30,700 -661 Descending Washington Center
Thu 01:09:19 PM 36.4639 -79.2308 56° Northeast 491 565 29,700 -1,279 Descending Washington Center
Thu 01:10:21 PM 36.5517 -79.0825 54° Northeast 491 565 28,100 -1,574 Descending Washington Center
Thu 01:11:21 PM 36.6331 -78.9361 55° Northeast 497 572 26,500 -1,576 Descending Washington Center
Thu 01:12:19 PM 36.7122 -78.7867 57° Northeast 508 585 25,000 -750 Descending Washington Center
Thu 01:13:21 PM 36.7933 -78.6422 55° Northeast 508 585 25,000  Level Washington Center
Thu 01:14:21 PM 36.8719 -78.4947 56° Northeast 508 585 25,000  Level Washington Center
Thu 01:15:19 PM 36.9664 -78.3836 43° Northeast 503 579 25,000 -254 Level Washington Center
Thu 01:16:19 PM 37.0856 -78.2892 32° Northeast 498 573 24,500 -744 Descending Washington Center
Thu 01:17:20 PM 37.2083 -78.1969 31° Northeast 506 582 23,500 -1,000 Descending Washington Center
Thu 01:18:19 PM 37.3231 -78.1042 33° Northeast 503 579 22,500 -750 Descending Washington Center
Thu 01:19:20 PM 37.4461 -78.0089 32° Northeast 503 579 22,000 -246 Descending Washington Center
Thu 01:20:21 PM 37.5689 -77.9158 31° Northeast 503 579 22,000 -1,609 Level Washington Center
Thu 01:22:19 PM 37.7994 -77.7389 31° Northeast 493 567 17,200 -2,629 Descending Washington Center
Thu 01:23:19 PM 37.9072 -77.6553 31° Northeast 472 543 14,200 -2,705 Descending Washington Center
Thu 01:24:21 PM 38.0108 -77.5764 31° Northeast 446 513 11,700 -2,100 Descending Washington Center
Thu 01:25:19 PM 38.1078 -77.5128 27° Northeast 417 480 10,000 -857 Descending Washington Center
Thu 01:26:20 PM 38.2064 -77.4811 14° North 379 436 10,000  Level Washington Center
Thu 01:27:20 PM 38.3069 -77.4519 13° North 366 421 10,000 -446 Level Washington Center
Thu 01:28:21 PM 38.3950 -77.4250 13° North 341 392 9,100 -1,289 Descending Washington Center
Thu 01:29:21 PM 38.4767 -77.3950 16° North 319 367 7,400 -1,678 Descending Washington Center
Thu 01:30:19 PM 38.5561 -77.3731 12° North 298 343 5,800 -1,248 Descending Washington Center
Thu 01:31:26 PM 38.6667 -77.3667 North 288 331 4,800 -803 Descending Potomac TRACON
Thu 01:32:26 PM 38.7333 -77.3667 360° North 285 328 4,100 -381 Descending Potomac TRACON
Thu 01:33:32 PM 38.8333 -77.3500 North 285 328 4,000 -50 Descending Potomac TRACON
Thu 01:34:26 PM 38.9000 -77.3500 360° North 285 328 4,000 -200 Level Potomac TRACON
Thu 01:35:32 PM 38.9833 -77.3500 360° North 281 323 3,600 -500 Descending Potomac TRACON
Thu 01:36:26 PM 39.0500 -77.3500 360° North 260 299 3,000 -316 Descending Potomac TRACON
Thu 01:37:26 PM 39.1167 -77.3500 360° North 244 281 3,000  Level Potomac TRACON
Thu 01:38:26 PM 39.1333 -77.4167 288° West 216 249 3,000 -104 Level Potomac TRACON
Thu 01:39:21 PM 39.0833 -77.4500 207° Southwest 185 213 2,800 -218 Descending Potomac TRACON

Login

Don't have an account? Register now (free) for customized features, flight alerts, and more!